Hiyoshi Maru No21 — JK5518 — position and weather

sailwx.info

Track history (hours):
 
Tides and Currents Weather Stations Pressure Air Temp Water Temp Dewpoint Dewpoint Depression Visibility Wind Speed Wind Dir Waves Ship Positions

Hiyoshi Maru No21

Last reported at 2017-Nov-12 06:42 UTC. Time now 2017-Nov-24 03:54 UTC.
Position N 35°04' E 139°38'.
Warning: this ship's position is 11 days out of date.

Length 72 m; draft 4 m.

Type: Tanker. MMSI: 432294000.

Date/timePositionNaut miles runAvg speedWind from/ knotsBaromVisibWave heightAir tempDewpointWater temp
2017-Nov-12 06:42N 35°04' E 139°38'212.2
2017-Nov-12 06:30N 35°05' E 139°40'612.1
2017-Nov-12 06:00N 35°10' E 139°45'611.8
2017-Nov-12 05:29N 35°16' E 139°46'612.3
2017-Nov-12 05:01N 35°21' E 139°42'612.1
2017-Nov-12 04:31N 35°27' E 139°45'4 8.8
2017-Nov-12 04:00N 35°31' E 139°46'0 0.0
2017-Nov-11 23:45N 35°31' E 139°46'0 0.9
2017-Nov-11 23:30N 35°31' E 139°46'3 6.3
2017-Nov-11 23:00N 35°29' E 139°49'0 0.0
2017-Nov-11 22:29N 35°29' E 139°49'0 0.0
2017-Nov-11 21:56N 35°29' E 139°49'0 0.0
2017-Nov-11 21:29N 35°29' E 139°49'0 0.0
2017-Nov-11 20:59N 35°29' E 139°49'0 0.0
2017-Nov-11 20:29N 35°29' E 139°49'0 0.0
2017-Nov-11 19:59N 35°29' E 139°49'0 0.0
2017-Nov-11 19:29N 35°29' E 139°49'0 0.0
2017-Nov-11 18:59N 35°29' E 139°49'0 0.0
2017-Nov-11 18:29N 35°29' E 139°49'0 0.0
2017-Nov-11 17:56N 35°29' E 139°49'0 0.0
2017-Nov-11 17:29N 35°29' E 139°49'0 0.0
2017-Nov-11 16:59N 35°29' E 139°49'0 0.1
2017-Nov-11 16:21N 35°29' E 139°49'2 6.9
2017-Nov-11 16:01N 35°27' E 139°48'611.6
2017-Nov-11 15:31N 35°21' E 139°45'510.5
2017-Nov-11 15:01N 35°16' E 139°46'611.1
2017-Nov-11 14:30N 35°11' E 139°46'611.8
2017-Nov-11 14:01N 35°05' E 139°44'611.4
2017-Nov-11 13:30N 34°59' E 139°43'2 0.1
2017-Nov-10 07:13N 34°57' E 139°44'312.7
2017-Nov-10 07:00N 34°60' E 139°43'612.8
2017-Nov-10 06:30N 35°06' E 139°45'612.6
2017-Nov-10 06:00N 35°12' E 139°46'611.9
2017-Nov-10 05:30N 35°18' E 139°44'611.5
2017-Nov-10 05:00N 35°24' E 139°43'612.3
2017-Nov-10 04:30N 35°29' E 139°47'2 4.6
2017-Nov-10 04:00N 35°31' E 139°46'0 0.0
2017-Nov-10 00:11N 35°31' E 139°46'0 0.1
2017-Nov-10 00:00N 35°31' E 139°46'3 5.3
2017-Nov-09 23:30N 35°29' E 139°49'1 0.3
2017-Nov-09 21:39N 35°29' E 139°49'0 0.0
2017-Nov-09 21:27N 35°29' E 139°49'0 0.0
2017-Nov-09 20:54N 35°29' E 139°49'0 0.0
2017-Nov-09 20:30N 35°29' E 139°49'0 0.0
2017-Nov-09 20:00N 35°29' E 139°49'0 0.1
2017-Nov-09 19:27N 35°29' E 139°49'0 0.1
2017-Nov-09 18:57N 35°29' E 139°49'0 0.0
2017-Nov-09 18:30N 35°29' E 139°49'0 0.0
2017-Nov-09 18:00N 35°29' E 139°49'0 0.0
2017-Nov-09 17:30N 35°29' E 139°49'0 0.0
2017-Nov-09 16:39N 35°29' E 139°49'0 0.0
2017-Nov-09 16:21N 35°29' E 139°49'0 0.0
2017-Nov-09 11:39N 35°29' E 139°49'0 2.7
2017-Nov-09 11:30N 35°28' E 139°49'611.1
2017-Nov-09 11:00N 35°23' E 139°46'611.2
2017-Nov-09 10:30N 35°18' E 139°45'611.6
2017-Nov-09 10:00N 35°12' E 139°47'  
2017-Nov-05 07:12N 34°59' E 139°30'210.3
2017-Nov-05 06:58N 35°00' E 139°33'611.8
2017-Nov-05 06:30N 35°04' E 139°38'612.9
2017-Nov-05 06:00N 35°09' E 139°43'612.3
2017-Nov-05 05:30N 35°14' E 139°46'510.9
2017-Nov-05 05:00N 35°19' E 139°43'611.3
2017-Nov-05 04:30N 35°25' E 139°43'612.6
2017-Nov-05 04:00N 35°28' E 139°50'612.2
2017-Nov-05 03:30N 35°31' E 139°57'6 0.3
2017-Nov-04 07:02N 35°36' E 139°55'7 0.6
2017-Nov-03 20:36N 35°30' E 139°52'111.8
2017-Nov-03 20:30N 35°29' E 139°52'612.3
2017-Nov-03 20:00N 35°25' E 139°46'611.7
2017-Nov-03 19:30N 35°19' E 139°44'611.8
2017-Nov-03 19:00N 35°14' E 139°47'612.2
2017-Nov-03 18:30N 35°08' E 139°45'612.2
2017-Nov-03 18:00N 35°03' E 139°40'713.2
2017-Nov-03 17:30N 34°59' E 139°34'713.7
2017-Nov-03 17:00N 34°55' E 139°27'  
Track history (hours):
 
Tides and Currents Weather Stations Pressure Air Temp Water Temp Dewpoint Dewpoint Depression Visibility Wind Speed Wind Dir Waves Ship Positions

Hiyoshi Maru No21

Last reported at 2017-Nov-12 06:42 UTC. Time now 2017-Nov-24 03:54 UTC.
Position N 35°04' E 139°38'.
Warning: this ship's position is 11 days out of date.

Length 72 m; draft 4 m.

Type: Tanker. MMSI: 432294000.

Date/timePositionNaut miles runAvg speedWind from/ knotsBaromVisibWave heightAir tempDewpointWater temp
2017-Nov-12 06:42N 35°04' E 139°38'212.2
2017-Nov-12 06:30N 35°05' E 139°40'612.1
2017-Nov-12 06:00N 35°10' E 139°45'611.8
2017-Nov-12 05:29N 35°16' E 139°46'612.3
2017-Nov-12 05:01N 35°21' E 139°42'612.1
2017-Nov-12 04:31N 35°27' E 139°45'4 8.8
2017-Nov-12 04:00N 35°31' E 139°46'0 0.0
2017-Nov-11 23:45N 35°31' E 139°46'0 0.9
2017-Nov-11 23:30N 35°31' E 139°46'3 6.3
2017-Nov-11 23:00N 35°29' E 139°49'0 0.0
2017-Nov-11 22:29N 35°29' E 139°49'0 0.0
2017-Nov-11 21:56N 35°29' E 139°49'0 0.0
2017-Nov-11 21:29N 35°29' E 139°49'0 0.0
2017-Nov-11 20:59N 35°29' E 139°49'0 0.0
2017-Nov-11 20:29N 35°29' E 139°49'0 0.0
2017-Nov-11 19:59N 35°29' E 139°49'0 0.0
2017-Nov-11 19:29N 35°29' E 139°49'0 0.0
2017-Nov-11 18:59N 35°29' E 139°49'0 0.0
2017-Nov-11 18:29N 35°29' E 139°49'0 0.0
2017-Nov-11 17:56N 35°29' E 139°49'0 0.0
2017-Nov-11 17:29N 35°29' E 139°49'0 0.0
2017-Nov-11 16:59N 35°29' E 139°49'0 0.1
2017-Nov-11 16:21N 35°29' E 139°49'2 6.9
2017-Nov-11 16:01N 35°27' E 139°48'611.6
2017-Nov-11 15:31N 35°21' E 139°45'510.5
2017-Nov-11 15:01N 35°16' E 139°46'611.1
2017-Nov-11 14:30N 35°11' E 139°46'611.8
2017-Nov-11 14:01N 35°05' E 139°44'611.4
2017-Nov-11 13:30N 34°59' E 139°43'2 0.1
2017-Nov-10 07:13N 34°57' E 139°44'312.7
2017-Nov-10 07:00N 34°60' E 139°43'612.8
2017-Nov-10 06:30N 35°06' E 139°45'612.6
2017-Nov-10 06:00N 35°12' E 139°46'611.9
2017-Nov-10 05:30N 35°18' E 139°44'611.5
2017-Nov-10 05:00N 35°24' E 139°43'612.3
2017-Nov-10 04:30N 35°29' E 139°47'2 4.6
2017-Nov-10 04:00N 35°31' E 139°46'0 0.0
2017-Nov-10 00:11N 35°31' E 139°46'0 0.1
2017-Nov-10 00:00N 35°31' E 139°46'3 5.3
2017-Nov-09 23:30N 35°29' E 139°49'1 0.3
2017-Nov-09 21:39N 35°29' E 139°49'0 0.0
2017-Nov-09 21:27N 35°29' E 139°49'0 0.0
2017-Nov-09 20:54N 35°29' E 139°49'0 0.0
2017-Nov-09 20:30N 35°29' E 139°49'0 0.0
2017-Nov-09 20:00N 35°29' E 139°49'0 0.1
2017-Nov-09 19:27N 35°29' E 139°49'0 0.1
2017-Nov-09 18:57N 35°29' E 139°49'0 0.0
2017-Nov-09 18:30N 35°29' E 139°49'0 0.0
2017-Nov-09 18:00N 35°29' E 139°49'0 0.0
2017-Nov-09 17:30N 35°29' E 139°49'0 0.0
2017-Nov-09 16:39N 35°29' E 139°49'0 0.0
2017-Nov-09 16:21N 35°29' E 139°49'0 0.0
2017-Nov-09 11:39N 35°29' E 139°49'0 2.7
2017-Nov-09 11:30N 35°28' E 139°49'611.1
2017-Nov-09 11:00N 35°23' E 139°46'611.2
2017-Nov-09 10:30N 35°18' E 139°45'611.6
2017-Nov-09 10:00N 35°12' E 139°47'  
2017-Nov-05 07:12N 34°59' E 139°30'210.3
2017-Nov-05 06:58N 35°00' E 139°33'611.8
2017-Nov-05 06:30N 35°04' E 139°38'612.9
2017-Nov-05 06:00N 35°09' E 139°43'612.3
2017-Nov-05 05:30N 35°14' E 139°46'510.9
2017-Nov-05 05:00N 35°19' E 139°43'611.3
2017-Nov-05 04:30N 35°25' E 139°43'612.6
2017-Nov-05 04:00N 35°28' E 139°50'612.2
2017-Nov-05 03:30N 35°31' E 139°57'6 0.3
2017-Nov-04 07:02N 35°36' E 139°55'7 0.6
2017-Nov-03 20:36N 35°30' E 139°52'111.8
2017-Nov-03 20:30N 35°29' E 139°52'612.3
2017-Nov-03 20:00N 35°25' E 139°46'611.7
2017-Nov-03 19:30N 35°19' E 139°44'611.8
2017-Nov-03 19:00N 35°14' E 139°47'612.2
2017-Nov-03 18:30N 35°08' E 139°45'612.2
2017-Nov-03 18:00N 35°03' E 139°40'713.2
2017-Nov-03 17:30N 34°59' E 139°34'713.7
2017-Nov-03 17:00N 34°55' E 139°27'  

Dump ship's entire track history